Impacts TAF Board INFO
FOR SITUATIONAL AWARENESS. NOT TO BE USED FOR FLIGHT PLANNING PURPOSES.
IDs:

KATL - Atlanta/Hartsfield-J, GA, US

Issued at 0139 UTC 26 Feb 2018
Updated at 0139 UTC 26 Feb 2018
Potential Impact None Slight Moderate High
Time<<26/14Z 26/15Z 26/16Z 26/17Z 26/18Z 26/19Z 26/20Z 26/21Z 26/22Z 26/23Z 27/00Z 27/01Z 27/02Z>>
Type PRVL PRVL PRVL PRVL PRVL PRVL PRVL PRVL PRVL PRVL PRVL PRVL PRVL
VIS 6 6 >6 >6 >6 >6 >6 >6 >6 >6 >6 >6 >6
CIG 12 12 25 25 25 25 35 35 35 -- -- -- --
Cover OVC OVC BKN BKN BKN BKN BKN BKN BKN SCT SCT SCT SCT
FltCat MVFR MVFR MVFR MVFR MVFR MVFR VFR VFR VFR VFR VFR VFR VFR
WX -SHRA -SHRA -- -- -- -- -- -- -- -- -- -- --
WDir 30 30 350 350 350 350 330 330 330 340 340 340 340
WSpd 5 5 5 5 5 5 6 6 6 6 6 6 6
WGst -- -- -- -- -- -- -- -- -- -- -- -- --

Raw TAF
KATL 260139Z 2602/2706 28006KT P6SM VCSH FEW050 OVC080
  FM260400 02003KT 6SM -SHRA SCT025 OVC060
  FM260800 08005KT 3SM -SHRA OVC012
  FM261000 06006KT 3SM SHRA OVC007
  FM261400 03005KT 6SM -SHRA SCT008 OVC012
  FM261600 35005KT P6SM SCT012 BKN025
  FM262000 33006KT P6SM BKN035
  FM262300 34006KT P6SM SCT050 SCT250


METAR Board
Radar Display
Forecast Discussion

FOR SITUATIONAL AWARENESS. NOT TO BE USED FOR FLIGHT PLANNING PURPOSES.